Time;durP1;ratioP1;P1;durP2;ratioP2;P2;SDS_P1;SDS_P2;PMS_P1;PMS_P2;Temp;Humidity;BMP_temperature;BMP_pressure;BME280_temperature;BME280_humidity;BME280_pressure;Samples;Min_cycle;Max_cycle;Signal;HPM_P1;HPM_P2
2022/04/05 00:02:09;;;;;;;;;;;;;;;17.75;43.41;100855.56;5015965;28;1020;-54
2022/04/05 00:04:35;;;;;;;;;;;;;;;18.13;42.31;100848.56;5013719;28;1383;-54
2022/04/05 00:07:00;;;;;;;;;;;;;;;18.35;41.70;100839.09;4998524;28;808;-53
2022/04/05 00:09:26;;;;;;;;;;;;;;;18.60;41.07;100842.81;5010648;28;893;-54
2022/04/05 00:11:51;;;;;;;;;;;;;;;18.56;41.15;100828.78;5015050;28;1557;-54
2022/04/05 00:14:17;;;;;;;;;;;;;;;18.12;41.91;100843.34;5015391;28;1910;-54
2022/04/05 00:16:42;;;;;;;;;;;;;;;17.61;42.17;100838.81;5013170;28;1158;-53
2022/04/05 00:19:07;;;;;;;;;;;;;;;17.22;41.61;100832.03;5014038;28;1376;-53
2022/04/05 00:21:33;;;;;;;;;;;;;;;16.96;40.89;100825.72;5009944;28;755;-53
2022/04/05 00:23:58;;;;;;;;;;;;;;;16.77;40.42;100837.22;5015060;28;845;-54
2022/04/05 00:26:24;;;;;;;;;;;;;;;16.62;40.19;100822.63;5000351;28;783;-54
2022/04/05 00:28:49;;;;;;;;;;;;;;;16.43;39.88;100823.97;4999750;28;779;-52
2022/04/05 00:31:15;;;;;;;;;;;;;;;16.30;40.07;100810.78;4981867;28;1124;-54
2022/04/05 00:33:40;;;;;;;;;;;;;;;16.34;40.90;100816.53;4993435;28;757;-54
2022/04/05 00:36:06;;;;;;;;;;;;;;;17.05;44.54;100823.22;4999640;28;1906;-53
2022/04/05 00:38:31;;;;;;;;;;;;;;;18.10;43.12;100816.13;4999818;28;1050;-54
2022/04/05 00:40:57;;;;;;;;;;;;;;;17.77;43.22;100812.09;4999569;28;865;-53
2022/04/05 00:43:22;;;;;;;;;;;;;;;17.36;43.62;100815.78;5010949;28;878;-54
2022/04/05 00:45:47;;;;;;;;;;;;;;;16.97;42.56;100816.38;5019000;28;802;-53
2022/04/05 00:48:16;;;;;;;;;;;;;;;16.70;41.99;100822.91;5018466;28;813;-54
2022/04/05 00:50:41;;;;;;;;;;;;;;;16.66;41.35;100826.47;5000793;28;824;-53
2022/04/05 00:53:07;;;;;;;;;;;;;;;16.50;41.64;100814.66;5018278;28;834;-53
2022/04/05 00:55:33;;;;;;;;;;;;;;;16.54;42.33;100799.31;4989746;28;1971;-53
2022/04/05 00:58:01;;;;;;;;;;;;;;;16.69;43.50;100806.72;4999227;28;786;-53
2022/04/05 01:00:27;;;;;;;;;;;;;;;16.85;44.36;100808.38;4999821;28;947;-53
2022/04/05 01:02:53;;;;;;;;;;;;;;;16.97;44.85;100799.06;4999043;28;842;-52
2022/04/05 01:05:18;;;;;;;;;;;;;;;17.12;44.54;100799.03;4999500;28;774;-53
2022/04/05 01:07:44;;;;;;;;;;;;;;;17.16;44.79;100797.41;4985060;28;803;-52
2022/04/05 01:10:11;;;;;;;;;;;;;;;17.18;44.56;100797.13;5014220;28;881;-54
2022/04/05 01:12:36;;;;;;;;;;;;;;;17.25;44.66;100801.25;5017742;28;850;-48
2022/04/05 01:15:01;;;;;;;;;;;;;;;17.29;44.18;100801.50;5017668;28;1902;-52
2022/04/05 01:17:27;;;;;;;;;;;;;;;17.27;44.10;100784.47;5017952;28;838;-53
2022/04/05 01:19:52;;;;;;;;;;;;;;;17.32;44.28;100789.97;4998408;28;770;-53
2022/04/05 01:22:18;;;;;;;;;;;;;;;17.37;43.96;100780.88;4999181;28;778;-53
2022/04/05 01:24:43;;;;;;;;;;;;;;;17.35;44.02;100770.16;5006865;28;909;-54
2022/04/05 01:27:16;;;;;;;;;;;;;;;17.41;43.84;100788.28;5016858;28;799;-55
2022/04/05 01:29:41;;;;;;;;;;;;;;;17.49;43.45;100788.81;5017490;28;816;-53
2022/04/05 01:32:07;;;;;;;;;;;;;;;17.64;43.15;100779.69;5017660;28;881;-54
2022/04/05 01:34:34;;;;;;;;;;;;;;;17.66;43.13;100775.56;5000399;28;1902;-53
2022/04/05 01:37:00;;;;;;;;;;;;;;;17.62;43.02;100763.47;4998521;28;835;-54
2022/04/05 01:39:29;;;;;;;;;;;;;;;17.69;43.00;100771.44;4998694;28;982;-53
2022/04/05 01:41:56;;;;;;;;;;;;;;;17.63;43.12;100776.13;4998354;28;916;-53
2022/04/05 01:44:21;;;;;;;;;;;;;;;17.75;42.76;100773.88;4998189;28;887;-53
2022/04/05 01:46:47;;;;;;;;;;;;;;;17.82;42.82;100767.25;5005881;28;846;-53
2022/04/05 01:49:16;;;;;;;;;;;;;;;17.83;42.72;100760.66;5017403;28;755;-53
2022/04/05 01:51:42;;;;;;;;;;;;;;;17.85;42.48;100770.25;5016883;28;815;-54
2022/04/05 01:54:08;;;;;;;;;;;;;;;17.90;42.53;100758.41;5012418;28;1930;-53
2022/04/05 01:56:34;;;;;;;;;;;;;;;17.89;42.67;100748.50;4998073;28;751;-53
2022/04/05 01:59:00;;;;;;;;;;;;;;;17.88;42.39;100755.09;5004728;28;826;-53
2022/04/05 02:01:25;;;;;;;;;;;;;;;17.92;42.57;100764.47;5017270;28;824;-54
2022/04/05 02:03:51;;;;;;;;;;;;;;;17.94;42.62;100759.53;5016927;28;799;-53
2022/04/05 02:06:16;;;;;;;;;;;;;;;17.97;42.30;100756.19;5017233;28;770;-54
2022/04/05 02:08:42;;;;;;;;;;;;;;;18.00;42.23;100752.88;5015531;28;841;-54
2022/04/05 02:11:07;;;;;;;;;;;;;;;18.03;42.13;100740.47;4997827;28;942;-54
2022/04/05 02:13:36;;;;;;;;;;;;;;;18.02;42.12;100742.41;4998544;28;1232;-54
2022/04/05 02:16:02;;;;;;;;;;;;;;;17.71;42.85;100745.28;5017390;28;1914;-53
2022/04/05 02:18:30;;;;;;;;;;;;;;;17.44;42.62;100749.22;4999269;28;1223;-53
2022/04/05 02:20:56;;;;;;;;;;;;;;;17.23;42.45;100742.16;4998893;28;1422;-52
2022/04/05 02:23:21;;;;;;;;;;;;;;;16.98;41.81;100743.84;5015722;28;817;-53
2022/04/05 02:25:54;;;;;;;;;;;;;;;16.73;41.09;100753.75;4993421;28;1075;-53
2022/04/05 02:28:23;;;;;;;;;;;;;;;16.58;40.09;100740.84;4999154;28;1271;-53
2022/04/05 02:30:52;;;;;;;;;;;;;;;16.49;40.13;100749.88;4998567;28;850;-53
2022/04/05 02:33:23;;;;;;;;;;;;;;;16.54;41.16;100744.41;5016552;28;751;-53
2022/04/05 02:35:51;;;;;;;;;;;;;;;16.66;42.18;100741.38;4998793;28;1906;-53
2022/04/05 02:38:18;;;;;;;;;;;;;;;16.81;43.08;100749.59;4985382;28;1171;-53
2022/04/05 02:40:44;;;;;;;;;;;;;;;16.89;43.38;100745.53;5003563;28;880;-53
2022/04/05 02:43:12;;;;;;;;;;;;;;;16.92;43.84;100750.47;4997948;28;814;-53
2022/04/05 02:45:38;;;;;;;;;;;;;;;16.99;43.98;100748.25;4992750;28;1101;-51
2022/04/05 02:48:04;;;;;;;;;;;;;;;17.04;44.11;100741.91;4973819;28;1012;-53
2022/04/05 02:50:31;;;;;;;;;;;;;;;17.11;44.06;100745.22;4986009;28;1106;-53
2022/04/05 02:52:57;;;;;;;;;;;;;;;17.15;44.32;100739.97;4979585;28;1152;-53
2022/04/05 02:55:24;;;;;;;;;;;;;;;17.13;44.43;100742.19;4982170;28;1907;-54
2022/04/05 02:57:50;;;;;;;;;;;;;;;17.10;44.19;100741.63;4979462;28;802;-52
2022/04/05 03:00:24;;;;;;;;;;;;;;;17.04;44.41;100745.50;4979953;28;954;-53
2022/04/05 03:02:50;;;;;;;;;;;;;;;17.14;44.22;100730.91;5003198;28;859;-54
2022/04/05 03:05:21;;;;;;;;;;;;;;;17.09;44.20;100723.50;4973763;28;1117;-54
2022/04/05 03:07:48;;;;;;;;;;;;;;;17.08;44.29;100726.53;4977117;28;1317;-54
2022/04/05 03:10:14;;;;;;;;;;;;;;;17.10;44.24;100719.66;4986296;28;1586;-54
2022/04/05 03:12:43;;;;;;;;;;;;;;;17.08;44.24;100726.53;4998467;28;1215;-53
2022/04/05 03:15:10;;;;;;;;;;;;;;;17.16;44.19;100723.22;4997358;28;1979;-53
2022/04/05 03:17:41;;;;;;;;;;;;;;;17.13;44.19;100717.47;5016253;28;1537;-52
2022/04/05 03:20:08;;;;;;;;;;;;;;;17.18;44.08;100720.19;4987302;28;723;-55
2022/04/05 03:22:34;;;;;;;;;;;;;;;17.14;44.17;100719.09;4979827;28;1120;-52
2022/04/05 03:25:00;;;;;;;;;;;;;;;17.18;43.98;100712.78;4996738;28;997;-54
2022/04/05 03:27:25;;;;;;;;;;;;;;;17.15;44.33;100715.25;4993915;28;1397;-54
2022/04/05 03:29:51;;;;;;;;;;;;;;;17.19;43.95;100710.84;4988775;28;854;-53
2022/04/05 03:32:16;;;;;;;;;;;;;;;17.20;44.16;100712.50;4972018;28;1379;-54
2022/04/05 03:34:42;;;;;;;;;;;;;;;17.19;44.16;100716.34;4977010;28;1899;-55
2022/04/05 03:37:09;;;;;;;;;;;;;;;17.12;44.27;100704.81;4979527;28;1385;-60
2022/04/05 03:39:35;;;;;;;;;;;;;;;17.11;44.20;100712.25;4983053;28;1169;-59
2022/04/05 03:42:01;;;;;;;;;;;;;;;17.14;44.12;100710.84;4996193;28;1208;-59
2022/04/05 03:44:27;;;;;;;;;;;;;;;17.13;44.04;100717.47;4998175;28;1351;-58
2022/04/05 03:46:53;;;;;;;;;;;;;;;17.07;44.28;100713.91;4992827;28;1624;-58
2022/04/05 03:49:19;;;;;;;;;;;;;;;17.08;43.98;100715.53;4977870;28;1320;-59
2022/04/05 03:51:44;;;;;;;;;;;;;;;17.06;44.04;100713.06;4999820;28;813;-58
2022/04/05 03:54:10;;;;;;;;;;;;;;;17.10;43.94;100711.41;4986842;28;1955;-58
2022/04/05 03:56:39;;;;;;;;;;;;;;;17.14;44.07;100713.59;4975698;28;1254;-59
2022/04/05 03:59:05;;;;;;;;;;;;;;;17.18;43.75;100714.69;4974911;28;1342;-59
2022/04/05 04:01:31;;;;;;;;;;;;;;;17.18;43.80;100720.19;4978189;28;1287;-59
2022/04/05 04:03:57;;;;;;;;;;;;;;;17.17;43.82;100713.88;4982460;28;1666;-56
2022/04/05 04:06:24;;;;;;;;;;;;;;;17.17;43.79;100718.56;4991359;28;1391;-57
2022/04/05 04:08:51;;;;;;;;;;;;;;;17.13;44.06;100711.97;4998901;28;1219;-57
2022/04/05 04:11:19;;;;;;;;;;;;;;;17.15;44.04;100710.56;4986147;28;1112;-56
2022/04/05 04:13:46;;;;;;;;;;;;;;;17.18;44.01;100715.53;4982513;28;1337;-56
2022/04/05 04:16:13;;;;;;;;;;;;;;;17.19;43.86;100710.84;4982102;28;1984;-56
2022/04/05 04:18:42;;;;;;;;;;;;;;;17.20;43.69;100721.56;4985439;28;1207;-58
2022/04/05 04:21:08;;;;;;;;;;;;;;;17.27;43.56;100718.50;5019287;28;747;-57
2022/04/05 04:23:34;;;;;;;;;;;;;;;17.24;43.76;100708.09;5000650;28;1398;-57
2022/04/05 04:26:00;;;;;;;;;;;;;;;17.27;43.55;100721.25;4999478;28;923;-56
2022/04/05 04:28:27;;;;;;;;;;;;;;;17.16;43.68;100711.41;4982037;28;1338;-58
2022/04/05 04:30:54;;;;;;;;;;;;;;;17.15;43.96;100720.75;4999779;28;870;-57
2022/04/05 04:33:20;;;;;;;;;;;;;;;17.17;43.70;100716.63;4999920;28;755;-57
2022/04/05 04:35:45;;;;;;;;;;;;;;;17.16;43.63;100722.41;5000020;28;1913;-57
2022/04/05 04:38:12;;;;;;;;;;;;;;;17.16;44.02;100722.41;4999545;28;1133;-57
2022/04/05 04:40:37;;;;;;;;;;;;;;;17.16;43.69;100716.91;4999818;28;1030;-57
2022/04/05 04:43:03;;;;;;;;;;;;;;;17.14;43.78;100719.94;4999969;28;813;-58
2022/04/05 04:45:30;;;;;;;;;;;;;;;17.20;43.73;100723.50;4999336;28;835;-56
2022/04/05 04:47:56;;;;;;;;;;;;;;;17.20;43.56;100728.97;4999680;28;890;-56
2022/04/05 04:50:22;;;;;;;;;;;;;;;17.10;43.91;100714.16;4999415;28;1204;-61
2022/04/05 04:52:47;;;;;;;;;;;;;;;17.16;43.81;100708.66;4999524;28;893;-63
2022/04/05 04:55:13;;;;;;;;;;;;;;;17.22;43.53;100726.75;5004988;28;1906;-59
2022/04/05 04:57:38;;;;;;;;;;;;;;;17.22;43.44;100726.75;5005663;28;838;-60
2022/04/05 05:00:04;;;;;;;;;;;;;;;17.24;43.60;100725.38;4999688;28;841;-61
2022/04/05 05:02:30;;;;;;;;;;;;;;;17.19;43.49;100716.34;4998845;28;1407;-61
2022/04/05 05:04:55;;;;;;;;;;;;;;;17.15;43.56;100712.50;4999507;28;770;-59
2022/04/05 05:07:21;;;;;;;;;;;;;;;17.21;43.54;100719.66;4999096;28;946;-60
2022/04/05 05:09:46;;;;;;;;;;;;;;;17.16;43.70;100720.47;4998741;28;909;-61
2022/04/05 05:12:12;;;;;;;;;;;;;;;17.17;43.51;100713.06;4999345;28;935;-59
2022/04/05 05:14:40;;;;;;;;;;;;;;;17.19;43.66;100728.13;4998693;28;1985;-58
2022/04/05 05:17:05;;;;;;;;;;;;;;;17.26;43.42;100733.34;4999060;28;764;-59
2022/04/05 05:19:31;;;;;;;;;;;;;;;17.27;43.41;100726.75;4999324;28;782;-58
2022/04/05 05:21:57;;;;;;;;;;;;;;;17.19;43.42;100717.16;4998666;28;854;-59
2022/04/05 05:24:22;;;;;;;;;;;;;;;17.23;43.39;100725.66;5001478;28;916;-63
2022/04/05 05:26:48;;;;;;;;;;;;;;;17.22;43.55;100715.78;5017478;28;750;-61
2022/04/05 05:29:14;;;;;;;;;;;;;;;17.27;43.29;100724.00;5017684;28;780;-58
2022/04/05 05:31:40;;;;;;;;;;;;;;;17.31;43.29;100725.09;5017738;28;839;-59
2022/04/05 05:34:05;;;;;;;;;;;;;;;17.28;43.42;100725.66;5017235;28;1985;-60
2022/04/05 05:36:31;;;;;;;;;;;;;;;17.28;43.36;100731.97;5007192;28;991;-60
2022/04/05 05:38:56;;;;;;;;;;;;;;;17.30;43.61;100728.94;4992860;28;1119;-60
2022/04/05 05:41:22;;;;;;;;;;;;;;;17.30;43.61;100722.63;4998955;28;781;-60
2022/04/05 05:43:47;;;;;;;;;;;;;;;17.29;43.70;100738.28;4998750;28;779;-59
2022/04/05 05:46:14;;;;;;;;;;;;;;;17.30;43.38;100728.94;4998731;28;928;-59
2022/04/05 05:48:39;;;;;;;;;;;;;;;17.27;43.52;100718.50;4996138;28;939;-60
2022/04/05 05:51:05;;;;;;;;;;;;;;;17.31;43.39;100722.34;4992653;28;938;-58
2022/04/05 05:53:31;;;;;;;;;;;;;;;17.36;43.38;100729.75;4998602;28;919;-59
2022/04/05 05:55:56;;;;;;;;;;;;;;;17.33;43.21;100722.88;4997891;28;1977;-60
2022/04/05 05:58:22;;;;;;;;;;;;;;;17.38;43.36;100728.38;4998558;28;827;-59
2022/04/05 06:00:47;;;;;;;;;;;;;;;17.42;43.13;100731.41;5004470;28;823;-59
2022/04/05 06:03:13;;;;;;;;;;;;;;;17.41;43.19;100727.00;4997636;28;1014;-59
2022/04/05 06:05:38;;;;;;;;;;;;;;;17.45;43.03;100715.16;4997984;28;861;-60
2022/04/05 06:08:07;;;;;;;;;;;;;;;17.45;43.03;100726.13;4998432;28;863;-60
2022/04/05 06:10:32;;;;;;;;;;;;;;;17.41;43.14;100719.56;5009254;28;873;-60
2022/04/05 06:12:58;;;;;;;;;;;;;;;17.44;43.21;100719.00;5012612;28;826;-59
2022/04/05 06:15:25;;;;;;;;;;;;;;;17.49;43.09;100736.56;5015548;28;1974;-59
2022/04/05 06:17:50;;;;;;;;;;;;;;;17.52;43.12;100727.78;5016388;28;818;-59
2022/04/05 06:20:16;;;;;;;;;;;;;;;17.47;42.95;100712.09;5016994;28;866;-59
2022/04/05 06:22:45;;;;;;;;;;;;;;;17.54;42.83;100728.31;5016490;28;828;-58
2022/04/05 06:25:11;;;;;;;;;;;;;;;17.45;43.06;100717.09;5002875;28;894;-61
2022/04/05 06:27:37;;;;;;;;;;;;;;;17.53;43.06;100722.00;5014492;28;905;-61
2022/04/05 06:30:04;;;;;;;;;;;;;;;17.50;43.37;100707.97;5016758;28;1391;-62
2022/04/05 06:32:29;;;;;;;;;;;;;;;17.51;42.93;100707.69;5016335;28;858;-61
2022/04/05 06:34:55;;;;;;;;;;;;;;;17.61;42.76;100713.16;5016696;28;1914;-61
2022/04/05 06:37:20;;;;;;;;;;;;;;;17.60;42.92;100705.22;5016526;28;1059;-61
2022/04/05 06:39:46;;;;;;;;;;;;;;;17.70;42.70;100715.34;5005009;28;826;-62
2022/04/05 06:42:11;;;;;;;;;;;;;;;17.66;42.78;100701.31;5016951;28;789;-61
2022/04/05 06:44:36;;;;;;;;;;;;;;;17.68;42.67;100706.53;5016515;28;919;-62
2022/04/05 06:47:02;;;;;;;;;;;;;;;17.69;42.72;100710.94;5016105;28;759;-62
2022/04/05 06:49:27;;;;;;;;;;;;;;;17.66;42.79;100714.25;5008355;28;879;-62
2022/04/05 06:51:53;;;;;;;;;;;;;;;17.65;42.88;100712.59;5004905;28;818;-62
2022/04/05 06:54:18;;;;;;;;;;;;;;;17.70;42.77;100709.84;5010717;28;1907;-62
2022/04/05 06:56:44;;;;;;;;;;;;;;;17.71;42.62;100700.47;5016439;28;889;-62
2022/04/05 06:59:09;;;;;;;;;;;;;;;17.76;42.36;100698.50;5016236;28;762;-62
2022/04/05 07:01:35;;;;;;;;;;;;;;;17.78;42.79;100700.97;5016157;28;843;-61
2022/04/05 07:04:01;;;;;;;;;;;;;;;17.78;42.60;100695.47;5011214;28;890;-61
2022/04/05 07:06:26;;;;;;;;;;;;;;;17.84;42.60;100697.09;4973521;28;1149;-61
2022/04/05 07:08:51;;;;;;;;;;;;;;;17.82;42.30;100692.97;4996903;28;814;-61
2022/04/05 07:11:17;;;;;;;;;;;;;;;17.82;42.42;100701.22;4997581;28;838;-61
2022/04/05 07:13:42;;;;;;;;;;;;;;;17.93;42.10;100702.84;4997379;28;871;-61
2022/04/05 07:16:08;;;;;;;;;;;;;;;17.83;42.37;100695.44;5015060;28;1909;-61
2022/04/05 07:18:33;;;;;;;;;;;;;;;17.89;42.10;100690.72;5014668;28;834;-62
2022/04/05 07:20:59;;;;;;;;;;;;;;;17.89;42.04;100690.72;5016264;28;824;-59
2022/04/05 07:23:25;;;;;;;;;;;;;;;17.90;42.32;100697.88;5015661;28;1479;-61
2022/04/05 07:25:51;;;;;;;;;;;;;;;17.88;42.17;100683.56;4998830;28;802;-61
2022/04/05 07:28:16;;;;;;;;;;;;;;;17.88;42.24;100691.84;5001180;28;767;-63
2022/04/05 07:30:42;;;;;;;;;;;;;;;17.94;42.11;100694.31;5010116;28;842;-62
2022/04/05 07:33:08;;;;;;;;;;;;;;;17.95;42.04;100686.91;5020266;28;755;-62
2022/04/05 07:35:34;;;;;;;;;;;;;;;17.93;42.42;100691.84;5019566;28;1988;-63
2022/04/05 07:37:59;;;;;;;;;;;;;;;17.97;42.33;100690.16;5019319;28;1030;-61
2022/04/05 07:40:27;;;;;;;;;;;;;;;18.02;42.28;100701.16;5004835;28;953;-60
2022/04/05 07:42:52;;;;;;;;;;;;;;;18.03;41.87;100690.94;4996605;28;1189;-61
2022/04/05 07:45:18;;;;;;;;;;;;;;;18.01;42.21;100694.00;5000787;28;823;-60
2022/04/05 07:47:43;;;;;;;;;;;;;;;17.87;42.21;100695.72;5000017;28;1221;-61
2022/04/05 07:50:09;;;;;;;;;;;;;;;17.81;42.43;100681.16;5000824;28;1050;-60
2022/04/05 07:52:34;;;;;;;;;;;;;;;17.55;42.26;100685.97;5000213;28;1311;-60
2022/04/05 07:55:00;;;;;;;;;;;;;;;17.30;41.76;100684.97;5003815;28;1980;-61
2022/04/05 07:57:25;;;;;;;;;;;;;;;17.06;41.28;100669.09;5007493;28;1033;-61
2022/04/05 07:59:51;;;;;;;;;;;;;;;17.00;40.28;100683.97;5006146;28;833;-60
2022/04/05 08:02:16;;;;;;;;;;;;;;;16.84;40.19;100676.84;5000746;28;858;-60
2022/04/05 08:04:42;;;;;;;;;;;;;;;16.67;40.26;100672.47;5000176;28;862;-60
2022/04/05 08:07:07;;;;;;;;;;;;;;;16.55;40.02;100666.44;5018643;28;846;-60
2022/04/05 08:09:33;;;;;;;;;;;;;;;16.50;39.88;100666.44;5016214;28;1194;-60
2022/04/05 08:11:58;;;;;;;;;;;;;;;16.38;39.75;100662.06;5019202;28;880;-60
2022/04/05 08:14:27;;;;;;;;;;;;;;;16.40;40.42;100668.09;5000904;28;1973;-60
2022/04/05 08:16:57;;;;;;;;;;;;;;;16.85;43.03;100656.50;4997223;28;1078;-60
2022/04/05 08:19:22;;;;;;;;;;;;;;;17.82;44.16;100659.97;4994973;28;1062;-61
2022/04/05 08:21:48;;;;;;;;;;;;;;;18.66;42.11;100654.38;4998965;28;1212;-60
2022/04/05 08:24:13;;;;;;;;;;;;;;;18.29;42.28;100647.56;5000141;28;854;-60
2022/04/05 08:26:39;;;;;;;;;;;;;;;17.72;42.95;100645.16;5017439;28;846;-61
2022/04/05 08:29:04;;;;;;;;;;;;;;;17.30;42.51;100632.75;5018875;28;934;-61
2022/04/05 08:31:30;;;;;;;;;;;;;;;17.05;41.87;100633.69;5018521;28;842;-60
2022/04/05 08:33:55;;;;;;;;;;;;;;;16.86;41.21;100641.69;5008072;28;1424;-60
2022/04/05 08:36:21;;;;;;;;;;;;;;;16.67;40.65;100634.03;4999883;28;1906;-60
2022/04/05 08:38:46;;;;;;;;;;;;;;;16.70;41.20;100627.97;4999309;28;1120;-61
2022/04/05 08:41:13;;;;;;;;;;;;;;;16.79;42.06;100625.50;5015282;28;830;-61
2022/04/05 08:43:38;;;;;;;;;;;;;;;16.92;43.21;100627.69;5018771;28;834;-61
2022/04/05 08:46:06;;;;;;;;;;;;;;;16.90;43.59;100615.31;5004235;28;1089;-60
2022/04/05 08:48:31;;;;;;;;;;;;;;;17.02;43.98;100612.28;4982672;28;949;-61
2022/04/05 08:50:57;;;;;;;;;;;;;;;17.09;43.88;100616.34;5001741;28;826;-61
2022/04/05 08:53:24;;;;;;;;;;;;;;;17.07;44.41;100615.81;5001693;28;1104;-60
2022/04/05 08:55:51;;;;;;;;;;;;;;;17.09;44.28;100599.06;4998252;28;1967;-60
2022/04/05 08:58:16;;;;;;;;;;;;;;;17.17;44.54;100592.16;4999103;28;984;-62
2022/04/05 09:00:43;;;;;;;;;;;;;;;17.14;44.42;100598.19;5013765;28;775;-60
2022/04/05 09:03:09;;;;;;;;;;;;;;;17.21;44.67;100590.50;5009459;28;1113;-61
2022/04/05 09:05:36;;;;;;;;;;;;;;;17.23;44.46;100596.53;4999291;28;918;-61
2022/04/05 09:08:10;;;;;;;;;;;;;;;17.25;44.39;100584.16;4999370;28;831;-60
2022/04/05 09:10:35;;;;;;;;;;;;;;;17.23;44.62;100586.34;4998991;28;1054;-61
2022/04/05 09:13:01;;;;;;;;;;;;;;;17.25;44.28;100572.31;5013514;28;913;-60
2022/04/05 09:15:27;;;;;;;;;;;;;;;17.26;44.35;100584.97;5000991;28;1965;-60
2022/04/05 09:17:52;;;;;;;;;;;;;;;17.27;44.23;100578.38;4999160;28;825;-61
2022/04/05 09:20:18;;;;;;;;;;;;;;;17.24;44.29;100577.00;4999230;28;809;-61
2022/04/05 09:22:44;;;;;;;;;;;;;;;17.28;44.38;100578.06;4995299;28;1156;-60
2022/04/05 09:25:10;;;;;;;;;;;;;;;17.27;44.09;100575.63;4994139;28;1401;-60
2022/04/05 09:27:48;;;;;;;;;;;;;;;17.32;44.01;100574.75;4999215;28;768;-60
2022/04/05 09:30:14;;;;;;;;;;;;;;;17.23;44.08;100561.59;4998589;28;842;-60
2022/04/05 09:32:42;;;;;;;;;;;;;;;17.35;44.15;100576.94;4998916;28;810;-61
2022/04/05 09:35:07;;;;;;;;;;;;;;;17.38;43.97;100562.66;4999387;28;1902;-61
2022/04/05 09:37:38;;;;;;;;;;;;;;;17.34;43.77;100553.31;5005365;28;1201;-60
2022/04/05 09:40:22;;;;;;;;;;;;;;;17.37;43.73;100552.75;5005013;28;881;-60
2022/04/05 09:42:57;;;;;;;;;;;;;;;17.38;43.71;100560.72;4998595;28;820;-62
2022/04/05 09:45:41;;;;;;;;;;;;;;;17.42;43.91;100550.78;4996587;28;991;-64
2022/04/05 09:48:08;;;;;;;;;;;;;;;17.38;43.68;100535.97;5004794;28;1232;-59
2022/04/05 09:50:53;;;;;;;;;;;;;;;17.48;43.33;100546.06;5004413;28;919;-58
2022/04/05 09:53:19;;;;;;;;;;;;;;;17.47;43.32;100530.69;4998231;28;1902;-60
2022/04/05 09:55:44;;;;;;;;;;;;;;;17.44;43.59;100526.56;5005279;28;1910;-59
2022/04/05 09:58:11;;;;;;;;;;;;;;;17.45;43.46;100530.97;5014636;28;1022;-61
2022/04/05 10:00:36;;;;;;;;;;;;;;;17.48;43.44;100520.53;4997414;28;1232;-61
2022/04/05 10:03:03;;;;;;;;;;;;;;;17.49;43.53;100511.16;5006012;28;882;-60
2022/04/05 10:05:32;;;;;;;;;;;;;;;17.59;43.32;100511.91;5004914;28;1085;-60
2022/04/05 10:07:57;;;;;;;;;;;;;;;17.71;42.97;100510.72;4995097;28;1197;-60
2022/04/05 10:10:23;;;;;;;;;;;;;;;17.60;42.86;100502.56;4997311;28;1229;-59
2022/04/05 10:12:49;;;;;;;;;;;;;;;17.64;42.87;100508.28;4997708;28;1201;-58
2022/04/05 10:15:14;;;;;;;;;;;;;;;17.58;43.02;100496.50;4997171;28;1906;-57
2022/04/05 10:17:45;;;;;;;;;;;;;;;17.57;43.15;100497.63;4997489;28;1271;-57
2022/04/05 10:20:11;;;;;;;;;;;;;;;17.59;42.91;100487.16;4997260;28;1355;-57
2022/04/05 10:22:38;;;;;;;;;;;;;;;17.60;43.15;100491.56;4991176;28;1114;-58
2022/04/05 10:25:03;;;;;;;;;;;;;;;17.59;43.19;100484.41;4997304;28;1244;-58
2022/04/05 10:27:29;;;;;;;;;;;;;;;17.65;43.02;100487.94;4997299;28;1220;-57
2022/04/05 10:30:10;;;;;;;;;;;;;;;17.70;42.70;100484.34;4998782;28;877;-57
2022/04/05 10:32:41;;;;;;;;;;;;;;;17.60;42.91;100479.75;5016786;28;734;-59
2022/04/05 10:35:08;;;;;;;;;;;;;;;17.68;42.70;100487.34;4999092;28;1909;-55
2022/04/05 10:37:37;;;;;;;;;;;;;;;17.68;42.67;100483.78;5016055;28;1069;-56
2022/04/05 10:40:03;;;;;;;;;;;;;;;17.68;42.63;100470.03;5003944;28;858;-60
2022/04/05 10:42:35;;;;;;;;;;;;;;;17.64;42.74;100463.47;5012289;28;888;-58
2022/04/05 10:45:11;;;;;;;;;;;;;;;17.70;42.74;100478.84;5016581;28;800;-59
2022/04/05 10:47:56;;;;;;;;;;;;;;;17.73;42.57;100468.06;5016882;28;778;-57
2022/04/05 10:50:21;;;;;;;;;;;;;;;17.69;42.65;100469.75;5016050;28;811;-59
2022/04/05 10:52:47;;;;;;;;;;;;;;;17.75;42.88;100465.03;5015463;28;825;-58
2022/04/05 10:55:16;;;;;;;;;;;;;;;17.77;42.66;100458.13;5014084;28;1981;-58
2022/04/05 10:57:41;;;;;;;;;;;;;;;17.76;42.67;100452.94;5015897;28;870;-58
2022/04/05 11:00:11;;;;;;;;;;;;;;;17.71;42.94;100452.97;5016095;28;786;-56
2022/04/05 11:02:46;;;;;;;;;;;;;;;17.73;42.64;100450.75;5016008;28;755;-56
2022/04/05 11:05:15;;;;;;;;;;;;;;;17.74;42.68;100447.72;4997378;28;784;-59
2022/04/05 11:08:03;;;;;;;;;;;;;;;17.73;42.57;100445.25;4998471;28;833;-59
2022/04/05 11:10:30;;;;;;;;;;;;;;;17.72;42.73;100444.41;4984415;28;1066;-58
2022/04/05 11:13:05;;;;;;;;;;;;;;;17.72;42.80;100430.66;4996741;28;1208;-58
2022/04/05 11:15:37;;;;;;;;;;;;;;;17.76;42.86;100428.19;4997449;28;1988;-59
2022/04/05 11:18:03;;;;;;;;;;;;;;;17.71;42.57;100420.81;4997263;28;755;-57
2022/04/05 11:20:29;;;;;;;;;;;;;;;17.79;42.43;100419.34;4995822;28;947;-57
2022/04/05 11:22:58;;;;;;;;;;;;;;;17.78;42.52;100413.03;5016152;28;896;-58
2022/04/05 11:25:27;;;;;;;;;;;;;;;17.79;42.44;100411.09;5000736;28;830;-58
2022/04/05 11:27:53;;;;;;;;;;;;;;;17.73;42.50;100413.06;4997196;28;878;-56
2022/04/05 11:30:26;;;;;;;;;;;;;;;17.76;42.71;100419.94;4996935;28;851;-59
2022/04/05 11:33:12;;;;;;;;;;;;;;;17.76;42.61;100411.66;4996741;28;720;-59
2022/04/05 11:35:57;;;;;;;;;;;;;;;17.81;42.46;100399.78;4997095;28;1906;-59
2022/04/05 11:38:25;;;;;;;;;;;;;;;17.80;42.51;100412.72;4983079;28;1693;-57
2022/04/05 11:41:02;;;;;;;;;;;;;;;17.87;42.40;100401.41;5011885;28;969;-59
2022/04/05 11:43:28;;;;;;;;;;;;;;;17.85;42.42;100395.34;5015778;28;1210;-57
2022/04/05 11:45:55;;;;;;;;;;;;;;;17.91;42.67;100399.72;5014029;28;1346;-57
2022/04/05 11:48:20;;;;;;;;;;;;;;;17.85;42.71;100392.59;4997044;28;1211;-58
2022/04/05 11:50:47;;;;;;;;;;;;;;;17.88;42.46;100389.25;4994039;28;1268;-56
2022/04/05 11:53:20;;;;;;;;;;;;;;;17.93;42.48;100383.75;4995887;28;1296;-59
2022/04/05 11:56:00;;;;;;;;;;;;;;;17.92;42.56;100382.94;4991809;28;1906;-56
2022/04/05 11:58:26;;;;;;;;;;;;;;;17.88;42.76;100370.00;4995940;28;1104;-58
2022/04/05 12:00:52;;;;;;;;;;;;;;;17.96;42.37;100369.41;4999421;28;1035;-57
2022/04/05 12:03:18;;;;;;;;;;;;;;;18.01;42.34;100374.84;4999508;28;1233;-57
2022/04/05 12:05:43;;;;;;;;;;;;;;;17.84;42.50;100361.53;5013184;28;1239;-56
2022/04/05 12:08:09;;;;;;;;;;;;;;;17.89;42.68;100356.00;5015563;28;953;-56
2022/04/05 12:10:35;;;;;;;;;;;;;;;18.00;42.44;100362.19;5009021;28;866;-59
2022/04/05 12:13:00;;;;;;;;;;;;;;;18.01;42.48;100352.84;4998309;28;1029;-60
2022/04/05 12:15:26;;;;;;;;;;;;;;;18.06;42.31;100358.28;5000218;28;1961;-58
2022/04/05 12:17:53;;;;;;;;;;;;;;;18.05;42.18;100359.41;4982941;28;880;-57
2022/04/05 12:20:19;;;;;;;;;;;;;;;17.99;42.53;100349.53;4982923;28;1316;-59
2022/04/05 12:22:44;;;;;;;;;;;;;;;17.94;42.71;100349.63;4996384;28;1039;-58
2022/04/05 12:25:10;;;;;;;;;;;;;;;17.90;42.64;100340.28;4999789;28;916;-58
2022/04/05 12:27:36;;;;;;;;;;;;;;;17.84;42.88;100335.94;5000282;28;1319;-59
2022/04/05 12:30:02;;;;;;;;;;;;;;;17.80;43.10;100330.22;4999286;28;887;-57
2022/04/05 12:32:34;;;;;;;;;;;;;;;17.72;43.23;100317.94;5010451;28;873;-56
2022/04/05 12:34:59;;;;;;;;;;;;;;;17.71;43.13;100309.97;5001148;28;1914;-55
2022/04/05 12:37:25;;;;;;;;;;;;;;;17.66;43.20;100313.59;5002258;28;1288;-57
2022/04/05 12:39:54;;;;;;;;;;;;;;;17.68;43.26;100316.88;4983085;28;1292;-56
2022/04/05 12:42:20;;;;;;;;;;;;;;;17.70;43.16;100320.16;4997651;28;1173;-55
2022/04/05 12:44:55;;;;;;;;;;;;;;;17.66;43.42;100319.09;4999790;28;835;-57
2022/04/05 12:47:21;;;;;;;;;;;;;;;17.52;43.64;100296.19;4999907;28;914;-57
2022/04/05 12:49:49;;;;;;;;;;;;;;;17.52;43.46;100287.94;5014892;28;830;-59
2022/04/05 12:52:22;;;;;;;;;;;;;;;17.57;43.60;100287.84;5018318;28;890;-59